Time;durP1;ratioP1;P1;durP2;ratioP2;P2;SDS_P1;SDS_P2;PMS_P1;PMS_P2;Temp;Humidity;BMP_temperature;BMP_pressure;BME280_temperature;BME280_humidity;BME280_pressure;Samples;Min_cycle;Max_cycle;Signal;HPM_P1;HPM_P2
2021/11/08 00:01:16;;;;;;;2.00;1.00;;;7.80;99.90;;;;;;5038100;28;20446;-71
2021/11/08 00:03:45;;;;;;;1.20;1.10;;;7.70;99.90;;;;;;5037361;28;20460;-69
2021/11/08 00:06:10;;;;;;;0.70;0.70;;;7.70;99.90;;;;;;5036533;28;20414;-70
2021/11/08 00:08:38;;;;;;;3.63;1.87;;;7.70;99.90;;;;;;5039861;28;20525;-72
2021/11/08 00:11:04;;;;;;;1.50;1.40;;;7.70;99.90;;;;;;5037788;28;20286;-70
2021/11/08 00:13:30;;;;;;;5.73;1.77;;;7.60;99.90;;;;;;5038039;28;20406;-71
2021/11/08 00:16:27;;;;;;;1.27;1.17;;;7.60;99.90;;;;;;5036292;28;20411;-72
2021/11/08 00:21:22;;;;;;;2.37;1.20;;;7.60;99.90;;;;;;5040779;28;20454;-71
2021/11/08 00:23:47;;;;;;;2.50;1.70;;;7.60;99.90;;;;;;5039948;28;20398;-70
2021/11/08 00:26:13;;;;;;;1.90;1.10;;;7.60;99.90;;;;;;5039229;28;20402;-69
2021/11/08 00:28:39;;;;;;;5.03;4.73;;;7.60;99.90;;;;;;5041791;28;20465;-72
2021/11/08 00:31:05;;;;;;;1.90;0.93;;;7.60;99.90;;;;;;5037652;28;20255;-72
2021/11/08 00:33:31;;;;;;;2.00;1.57;;;7.60;99.90;;;;;;5035626;28;20172;-72
2021/11/08 00:35:59;;;;;;;2.67;1.47;;;7.60;99.90;;;;;;5035000;28;20172;-73
2021/11/08 00:38:28;;;;;;;4.30;1.63;;;7.50;99.90;;;;;;5034413;28;20204;-72
2021/11/08 00:40:54;;;;;;;1.80;1.47;;;7.50;99.90;;;;;;5036606;28;20453;-72
2021/11/08 00:43:22;;;;;;;1.17;1.00;;;7.60;99.90;;;;;;5036323;28;20409;-71
2021/11/08 00:45:48;;;;;;;5.17;1.73;;;7.50;99.90;;;;;;5037089;28;20411;-72
2021/11/08 00:48:16;;;;;;;7.03;1.60;;;7.60;99.90;;;;;;5037357;28;20777;-72
2021/11/08 00:50:42;;;;;;;5.07;2.17;;;7.60;99.90;;;;;;5037871;28;20161;-72
2021/11/08 00:53:07;;;;;;;2.27;1.43;;;7.60;99.90;;;;;;5036755;28;20505;-72
2021/11/08 00:55:34;;;;;;;3.90;1.20;;;7.60;99.90;;;;;;5037909;28;20403;-72
2021/11/08 00:58:01;;;;;;;4.50;1.40;;;7.60;99.90;;;;;;5038694;28;20168;-71
2021/11/08 01:00:30;;;;;;;3.67;1.13;;;7.50;99.90;;;;;;5036535;28;20458;-70
2021/11/08 01:02:59;;;;;;;3.53;0.93;;;7.60;99.90;;;;;;5036338;28;20407;-71
2021/11/08 01:05:24;;;;;;;3.43;1.40;;;7.60;99.90;;;;;;5036193;28;20402;-70
2021/11/08 01:07:50;;;;;;;5.50;1.40;;;7.70;99.90;;;;;;5036234;28;20399;-72
2021/11/08 01:10:17;;;;;;;4.73;1.30;;;7.60;99.90;;;;;;5038358;28;20219;-71
2021/11/08 01:12:44;;;;;;;2.93;0.97;;;7.70;99.90;;;;;;5038709;28;20167;-71
2021/11/08 01:15:11;;;;;;;1.10;1.00;;;7.70;99.90;;;;;;5040552;28;20446;-71
2021/11/08 01:17:38;;;;;;;3.00;1.60;;;7.70;99.90;;;;;;5040242;28;20430;-69
2021/11/08 01:20:06;;;;;;;1.63;1.50;;;7.80;99.90;;;;;;5041252;28;20457;-70
2021/11/08 01:22:32;;;;;;;4.07;1.27;;;7.80;99.90;;;;;;5040323;28;20406;-70
2021/11/08 01:24:59;;;;;;;3.40;1.83;;;7.80;99.90;;;;;;5040403;28;20442;-71
2021/11/08 01:28:04;;;;;;;1.53;1.33;;;7.80;99.90;;;;;;5038389;28;20403;-71
2021/11/08 01:30:24;;;;;;;1.87;1.00;;;7.80;99.90;;;;;;5041010;28;20418;-71
2021/11/08 01:32:57;;;;;;;2.80;1.27;;;7.80;99.90;;;;;;5042188;28;20414;-70
2021/11/08 01:35:30;;;;;;;2.40;1.13;;;7.80;99.90;;;;;;5041620;28;20441;-72
2021/11/08 01:38:07;;;;;;;1.73;1.33;;;7.80;99.90;;;;;;5039966;28;20446;-72
2021/11/08 01:40:33;;;;;;;7.37;1.87;;;7.80;99.90;;;;;;5037465;28;20460;-72
2021/11/08 01:42:59;;;;;;;4.33;1.70;;;7.80;99.90;;;;;;5036821;28;20468;-72
2021/11/08 01:45:25;;;;;;;2.20;1.10;;;7.80;99.90;;;;;;5038904;28;20413;-72
2021/11/08 01:47:51;;;;;;;2.57;1.43;;;7.70;99.90;;;;;;5037908;28;20956;-73
2021/11/08 01:50:17;;;;;;;4.63;1.20;;;7.80;99.90;;;;;;5035598;28;20435;-73
2021/11/08 01:52:43;;;;;;;1.17;1.10;;;7.80;99.90;;;;;;5035336;28;20245;-73
2021/11/08 01:55:08;;;;;;;3.33;1.43;;;7.70;99.90;;;;;;5035371;28;20522;-73
2021/11/08 01:57:36;;;;;;;3.37;2.77;;;7.70;99.90;;;;;;5035854;28;20191;-71
2021/11/08 02:00:07;;;;;;;2.37;1.83;;;7.70;99.90;;;;;;5036630;28;20674;-71
2021/11/08 02:02:34;;;;;;;1.97;1.40;;;7.80;99.90;;;;;;5040581;28;20414;-72
2021/11/08 02:05:00;;;;;;;2.20;1.17;;;7.80;99.90;;;;;;5038766;28;20513;-72
2021/11/08 02:07:25;;;;;;;1.43;1.23;;;7.70;99.90;;;;;;5040012;28;20446;-72
2021/11/08 02:09:51;;;;;;;2.13;1.10;;;7.80;99.90;;;;;;5043038;28;20521;-70
2021/11/08 02:12:17;;;;;;;2.70;2.50;;;7.80;99.90;;;;;;5045030;28;20204;-70
2021/11/08 02:14:43;;;;;;;4.40;1.37;;;7.80;99.90;;;;;;5044882;28;20871;-69
2021/11/08 02:17:08;;;;;;;1.63;1.20;;;7.80;99.90;;;;;;5041407;28;20160;-71
2021/11/08 02:19:35;;;;;;;2.00;1.00;;;7.80;99.90;;;;;;5038608;28;20421;-71
2021/11/08 02:22:03;;;;;;;1.23;0.80;;;7.90;99.90;;;;;;5039244;28;20260;-71
2021/11/08 02:24:29;;;;;;;1.20;1.10;;;7.90;99.90;;;;;;5041674;28;20406;-71
2021/11/08 02:26:55;;;;;;;7.70;1.77;;;7.90;99.90;;;;;;5044279;28;20472;-69
2021/11/08 02:29:21;;;;;;;1.20;1.10;;;7.80;99.90;;;;;;5043258;28;20506;-70
2021/11/08 02:31:47;;;;;;;10.00;1.83;;;7.90;99.90;;;;;;5040854;28;20449;-69
2021/11/08 02:34:12;;;;;;;1.17;1.00;;;7.80;99.90;;;;;;5043974;28;20294;-71
2021/11/08 02:36:42;;;;;;;1.93;1.10;;;7.80;99.90;;;;;;5044163;28;20669;-69
2021/11/08 02:39:15;;;;;;;1.27;1.17;;;7.80;99.90;;;;;;5039846;28;20191;-72
2021/11/08 02:41:41;;;;;;;1.67;1.20;;;7.80;99.90;;;;;;5041405;28;20926;-70
2021/11/08 02:44:07;;;;;;;1.10;0.90;;;7.80;99.90;;;;;;5044519;28;20413;-73
2021/11/08 02:46:38;;;;;;;2.70;1.20;;;7.90;99.90;;;;;;5040848;28;20174;-72
2021/11/08 02:49:06;;;;;;;3.30;1.73;;;7.90;99.90;;;;;;5038194;28;20198;-70
2021/11/08 02:51:32;;;;;;;2.20;1.40;;;7.90;99.90;;;;;;5041249;28;20417;-72
2021/11/08 02:54:04;;;;;;;1.53;0.93;;;7.90;99.90;;;;;;5041201;28;20484;-72
2021/11/08 02:56:31;;;;;;;1.90;1.67;;;7.90;99.90;;;;;;5041522;28;20958;-72
2021/11/08 02:58:57;;;;;;;2.93;1.77;;;7.90;99.90;;;;;;5042693;28;20488;-70
2021/11/08 03:01:25;;;;;;;1.73;1.40;;;7.90;99.90;;;;;;5043304;28;20450;-71
2021/11/08 03:03:56;;;;;;;3.10;1.70;;;7.90;99.90;;;;;;5041413;28;20399;-71
2021/11/08 03:06:30;;;;;;;1.30;1.20;;;7.90;99.90;;;;;;5039682;28;20407;-72
2021/11/08 03:08:59;;;;;;;6.30;2.97;;;7.90;99.90;;;;;;5041561;28;20509;-71
2021/11/08 03:11:24;;;;;;;1.87;1.57;;;7.90;99.90;;;;;;5042882;28;20407;-71
2021/11/08 03:14:04;;;;;;;1.80;1.70;;;7.90;99.90;;;;;;5039305;28;20411;-70
2021/11/08 03:16:40;;;;;;;10.23;2.73;;;7.90;99.90;;;;;;5041135;28;20164;-71
2021/11/08 03:19:24;;;;;;;1.90;1.80;;;7.90;99.90;;;;;;5038800;28;20863;-71
2021/11/08 03:21:56;;;;;;;3.20;2.83;;;7.80;99.90;;;;;;5039490;28;20461;-72
2021/11/08 03:24:37;;;;;;;7.73;1.77;;;7.90;99.90;;;;;;5035965;28;20398;-71
2021/11/08 03:27:10;;;;;;;5.00;2.80;;;7.90;99.90;;;;;;5037217;28;20455;-70
2021/11/08 03:29:35;;;;;;;2.73;2.50;;;7.90;99.90;;;;;;5037482;28;20438;-72
2021/11/08 03:32:02;;;;;;;2.03;1.93;;;7.90;99.90;;;;;;5040640;28;20413;-72
2021/11/08 03:34:29;;;;;;;3.87;2.50;;;7.90;99.90;;;;;;5039752;28;20171;-72
2021/11/08 03:36:56;;;;;;;5.07;3.00;;;7.90;99.90;;;;;;5040313;28;20498;-71
2021/11/08 03:39:22;;;;;;;3.73;2.67;;;7.90;99.90;;;;;;5041151;28;20441;-73
2021/11/08 03:41:48;;;;;;;2.50;2.30;;;7.90;99.90;;;;;;5039859;28;20456;-72
2021/11/08 03:44:13;;;;;;;4.77;3.53;;;7.90;99.90;;;;;;5038179;28;20414;-72
2021/11/08 03:46:39;;;;;;;6.00;3.60;;;7.90;99.90;;;;;;5037321;28;20175;-72
2021/11/08 03:49:04;;;;;;;2.67;2.47;;;7.90;99.90;;;;;;5036808;28;20731;-72
2021/11/08 03:51:30;;;;;;;3.20;2.90;;;7.90;99.90;;;;;;5037174;28;20183;-72
2021/11/08 03:53:55;;;;;;;2.93;2.63;;;7.90;99.90;;;;;;5036993;28;20171;-73
2021/11/08 03:56:21;;;;;;;4.37;2.70;;;8.00;99.90;;;;;;5037298;28;20690;-72
2021/11/08 03:58:46;;;;;;;3.93;3.30;;;8.00;99.90;;;;;;5036809;28;20188;-72
2021/11/08 04:01:12;;;;;;;3.40;2.67;;;8.00;99.90;;;;;;5037514;28;20261;-72
2021/11/08 04:03:37;;;;;;;3.97;3.03;;;8.00;99.90;;;;;;5037239;28;20172;-71
2021/11/08 04:06:03;;;;;;;6.73;3.67;;;8.00;99.90;;;;;;5037971;28;20172;-72
2021/11/08 04:08:29;;;;;;;5.50;3.30;;;8.00;99.90;;;;;;5037962;28;20195;-72
2021/11/08 04:10:55;;;;;;;3.37;3.07;;;8.00;99.90;;;;;;5038007;28;20412;-72
2021/11/08 04:13:28;;;;;;;3.03;2.73;;;8.00;99.90;;;;;;5038230;28;20164;-71
2021/11/08 04:15:55;;;;;;;3.57;2.60;;;8.00;99.90;;;;;;5039065;28;20407;-72
2021/11/08 04:18:23;;;;;;;4.47;3.70;;;8.00;99.90;;;;;;5038592;28;20457;-72
2021/11/08 04:20:50;;;;;;;3.07;2.77;;;8.00;99.90;;;;;;5038090;28;20552;-72
2021/11/08 04:23:18;;;;;;;4.70;2.40;;;8.10;99.90;;;;;;5037530;28;20483;-73
2021/11/08 04:25:44;;;;;;;5.00;2.60;;;8.00;99.90;;;;;;5039316;28;20396;-72
2021/11/08 04:28:10;;;;;;;2.13;1.93;;;8.10;99.90;;;;;;5037250;28;20889;-72
2021/11/08 04:30:42;;;;;;;2.10;1.90;;;8.00;99.90;;;;;;5038950;28;20551;-73
2021/11/08 04:38:39;;;;;;;1.93;1.83;;;8.00;99.90;;;;;;5037857;28;20433;-73
2021/11/08 04:41:15;;;;;;;2.67;1.30;;;8.10;99.90;;;;;;5038488;28;21198;-73
2021/11/08 04:43:59;;;;;;;1.63;1.50;;;8.10;99.90;;;;;;5037801;28;20414;-72
2021/11/08 04:46:45;;;;;;;2.20;2.00;;;8.10;99.90;;;;;;5038476;28;20485;-71
2021/11/08 04:54:19;;;;;;;1.57;0.87;;;8.10;99.90;;;;;;5038690;28;20417;-72
2021/11/08 04:57:13;;;;;;;2.10;1.00;;;8.10;99.90;;;;;;5040508;28;20464;-72
2021/11/08 05:21:40;;;;;;;3.20;2.17;;;8.20;99.90;;;;;;5038509;28;20616;-73
2021/11/08 05:24:23;;;;;;;1.70;1.43;;;8.30;99.90;;;;;;5037468;28;20406;-74
2021/11/08 05:32:20;;;;;;;4.20;2.27;;;8.30;99.90;;;;;;5037469;28;20401;-72
2021/11/08 05:34:45;;;;;;;4.13;2.00;;;8.30;99.90;;;;;;5036950;28;20434;-72
2021/11/08 05:37:11;;;;;;;1.70;1.33;;;8.30;99.90;;;;;;5036593;28;20411;-71
2021/11/08 05:39:43;;;;;;;2.20;1.43;;;8.30;99.90;;;;;;5036102;28;20662;-71
2021/11/08 05:42:08;;;;;;;2.20;1.73;;;8.40;99.90;;;;;;5037096;28;20486;-72
2021/11/08 05:44:37;;;;;;;1.07;0.97;;;8.30;99.90;;;;;;5037591;28;20923;-72
2021/11/08 05:47:03;;;;;;;1.53;1.43;;;8.40;99.90;;;;;;5038013;28;20156;-72
2021/11/08 05:49:29;;;;;;;3.17;1.00;;;8.30;99.90;;;;;;5036923;28;20874;-72
2021/11/08 05:51:54;;;;;;;1.20;1.10;;;8.40;99.90;;;;;;5037135;28;20182;-71
2021/11/08 05:54:21;;;;;;;1.33;1.23;;;8.40;99.90;;;;;;5039326;28;20194;-72
2021/11/08 05:57:15;;;;;;;1.53;1.43;;;8.40;99.90;;;;;;5034725;28;20187;-71
2021/11/08 06:51:35;;;;;;;4.10;1.33;;;8.90;99.90;;;;;;5042594;28;21128;-71
2021/11/08 06:54:02;;;;;;;2.07;1.77;;;8.70;99.90;;;;;;5043269;28;20964;-71
2021/11/08 06:56:32;;;;;;;6.27;1.93;;;8.70;99.90;;;;;;5043604;28;20931;-71
2021/11/08 06:58:57;;;;;;;1.23;1.13;;;8.90;99.90;;;;;;5041948;28;20473;-71
2021/11/08 07:01:23;;;;;;;3.77;1.20;;;9.00;99.90;;;;;;5041140;28;20452;-72
2021/11/08 07:03:49;;;;;;;2.47;1.20;;;8.90;99.90;;;;;;5041436;28;20184;-71
2021/11/08 07:06:15;;;;;;;4.10;2.33;;;9.00;99.90;;;;;;5039440;28;20164;-70
2021/11/08 07:08:40;;;;;;;1.40;1.30;;;9.00;99.90;;;;;;5038720;28;20191;-71
2021/11/08 07:11:06;;;;;;;5.57;1.33;;;8.90;99.90;;;;;;5040007;28;20205;-71
2021/11/08 07:13:31;;;;;;;3.63;1.90;;;9.10;99.90;;;;;;5042337;28;20169;-71
2021/11/08 07:15:57;;;;;;;6.87;3.27;;;9.30;99.90;;;;;;5034541;28;20552;-71
2021/11/08 07:18:22;;;;;;;6.43;1.57;;;9.10;99.90;;;;;;5034189;28;20275;-72
2021/11/08 07:20:49;;;;;;;1.23;1.10;;;8.90;99.90;;;;;;5033864;28;20192;-72
2021/11/08 07:23:15;;;;;;;2.57;1.90;;;8.90;99.90;;;;;;5034182;28;20619;-72
2021/11/08 07:25:42;;;;;;;5.23;1.40;;;8.90;99.90;;;;;;5034845;28;20406;-73
2021/11/08 07:28:11;;;;;;;1.30;1.20;;;8.90;99.90;;;;;;5038360;28;20443;-70
2021/11/08 07:30:38;;;;;;;2.50;1.37;;;8.90;99.90;;;;;;5043870;28;20418;-72
2021/11/08 07:33:04;;;;;;;2.03;1.47;;;8.90;99.90;;;;;;5042812;28;20410;-70
2021/11/08 07:35:29;;;;;;;3.83;1.37;;;8.90;99.90;;;;;;5042709;28;20402;-72
2021/11/08 07:37:55;;;;;;;2.37;2.17;;;8.90;99.90;;;;;;5040264;28;20431;-72
2021/11/08 07:40:20;;;;;;;1.90;1.50;;;8.90;99.90;;;;;;5041220;28;20203;-72
2021/11/08 07:42:48;;;;;;;1.83;1.47;;;8.90;99.90;;;;;;5040572;28;20188;-71
2021/11/08 07:45:13;;;;;;;1.90;1.30;;;8.90;99.90;;;;;;5042049;28;20173;-72
2021/11/08 07:47:39;;;;;;;2.30;1.33;;;8.90;99.90;;;;;;5034586;28;20416;-72
2021/11/08 07:50:05;;;;;;;3.17;1.30;;;9.00;99.90;;;;;;5035820;28;20203;-74
2021/11/08 07:52:31;;;;;;;4.50;1.50;;;9.00;99.90;;;;;;5041048;28;20183;-72
2021/11/08 07:54:56;;;;;;;2.40;1.10;;;9.00;99.90;;;;;;5039782;28;20398;-72
2021/11/08 07:57:22;;;;;;;10.60;1.70;;;9.00;99.90;;;;;;5041696;28;20199;-72
2021/11/08 07:59:48;;;;;;;1.17;0.90;;;9.10;99.90;;;;;;5027018;28;20193;-72
2021/11/08 08:02:14;;;;;;;1.97;1.20;;;9.00;99.90;;;;;;5020959;28;20243;-72
2021/11/08 08:04:40;;;;;;;1.20;1.10;;;9.00;99.90;;;;;;5022056;28;20424;-72
2021/11/08 08:07:05;;;;;;;1.47;1.20;;;9.10;99.90;;;;;;5020537;28;20276;-72
2021/11/08 08:09:31;;;;;;;1.53;1.30;;;9.20;99.90;;;;;;5019863;28;20459;-71
2021/11/08 08:11:57;;;;;;;1.60;1.00;;;9.10;99.90;;;;;;5030794;28;20207;-70
2021/11/08 08:14:23;;;;;;;3.23;1.00;;;9.20;99.90;;;;;;5034504;28;20646;-74
2021/11/08 08:16:49;;;;;;;2.43;2.03;;;9.20;99.90;;;;;;5017114;28;20447;-72
2021/11/08 08:19:15;;;;;;;1.97;1.57;;;9.30;99.90;;;;;;5015098;28;20502;-73
2021/11/08 08:21:40;;;;;;;2.27;1.50;;;9.40;99.90;;;;;;5016340;28;20199;-73
2021/11/08 08:24:06;;;;;;;1.87;1.17;;;9.40;99.90;;;;;;5015245;28;20179;-72
2021/11/08 08:26:35;;;;;;;1.50;1.10;;;9.40;99.90;;;;;;5015382;28;20635;-72
2021/11/08 08:29:06;;;;;;;2.07;1.37;;;9.50;99.90;;;;;;5015790;28;20183;-72
2021/11/08 08:31:38;;;;;;;1.30;1.20;;;9.40;99.90;;;;;;5016297;28;20399;-72
2021/11/08 08:34:04;;;;;;;2.30;1.50;;;9.50;99.90;;;;;;5015443;28;20816;-71
2021/11/08 08:36:29;;;;;;;2.30;1.23;;;9.40;99.90;;;;;;5015409;28;20410;-72
2021/11/08 08:38:55;;;;;;;2.70;1.70;;;9.30;99.90;;;;;;5014835;28;20437;-72
2021/11/08 08:41:21;;;;;;;1.43;1.33;;;9.40;99.90;;;;;;5015356;28;20232;-72
2021/11/08 08:43:47;;;;;;;1.20;1.10;;;9.40;99.90;;;;;;5015210;28;20176;-72
2021/11/08 08:46:13;;;;;;;3.53;0.97;;;9.60;99.90;;;;;;5017581;28;20746;-71
2021/11/08 08:48:40;;;;;;;2.13;1.17;;;9.50;99.90;;;;;;5027911;28;20204;-72
2021/11/08 08:51:07;;;;;;;3.80;1.53;;;9.60;99.90;;;;;;5033818;28;20418;-70
2021/11/08 08:53:33;;;;;;;6.67;1.20;;;9.70;99.90;;;;;;5034465;28;20485;-72
2021/11/08 08:56:00;;;;;;;1.10;1.00;;;9.60;99.90;;;;;;5034531;28;20423;-72
2021/11/08 08:58:25;;;;;;;2.27;1.07;;;9.40;99.90;;;;;;5036256;28;20443;-74
2021/11/08 09:00:52;;;;;;;4.20;1.17;;;9.50;99.90;;;;;;5035414;28;20457;-71
2021/11/08 09:03:18;;;;;;;1.07;0.97;;;9.50;99.90;;;;;;5034914;28;20168;-72
2021/11/08 09:05:45;;;;;;;1.10;1.00;;;9.40;99.90;;;;;;5034570;28;20754;-72
2021/11/08 09:08:11;;;;;;;1.70;0.87;;;9.30;99.90;;;;;;5034834;28;20452;-71
2021/11/08 09:10:38;;;;;;;5.20;2.00;;;9.40;99.90;;;;;;5034682;28;20451;-71
2021/11/08 09:13:06;;;;;;;1.53;1.23;;;9.30;99.90;;;;;;5034415;28;20414;-72
2021/11/08 09:15:34;;;;;;;2.00;1.17;;;9.30;99.90;;;;;;5033949;28;20435;-72
2021/11/08 09:18:01;;;;;;;7.33;1.10;;;9.40;99.90;;;;;;5034212;28;20440;-72
2021/11/08 09:20:27;;;;;;;3.67;1.30;;;9.40;99.90;;;;;;5033172;28;20457;-72
2021/11/08 09:22:53;;;;;;;1.93;1.27;;;9.40;99.90;;;;;;5034533;28;20461;-71
2021/11/08 09:25:21;;;;;;;2.07;1.07;;;9.40;99.90;;;;;;5046182;28;20908;-71
2021/11/08 09:27:48;;;;;;;1.00;0.90;;;9.30;99.90;;;;;;5044434;28;20435;-71
2021/11/08 09:30:16;;;;;;;1.63;1.47;;;9.30;99.90;;;;;;5033211;28;20807;-72
2021/11/08 09:32:42;;;;;;;1.37;1.27;;;9.40;99.90;;;;;;5035202;28;20537;-71
2021/11/08 09:35:09;;;;;;;2.00;1.30;;;9.40;99.90;;;;;;5033893;28;20878;-72
2021/11/08 09:37:42;;;;;;;1.30;1.20;;;9.50;99.90;;;;;;5033799;28;20420;-72
2021/11/08 09:40:08;;;;;;;1.20;0.83;;;9.60;99.90;;;;;;5033988;28;20430;-70
2021/11/08 09:42:35;;;;;;;1.53;0.90;;;9.50;99.90;;;;;;5035051;28;20411;-72
2021/11/08 09:45:03;;;;;;;1.57;1.20;;;9.40;99.90;;;;;;5034040;28;20930;-72
2021/11/08 09:47:29;;;;;;;3.53;1.07;;;9.40;99.90;;;;;;5034757;28;20431;-72
2021/11/08 09:49:59;;;;;;;1.80;1.07;;;9.40;99.90;;;;;;5032238;28;20466;-72
2021/11/08 09:52:26;;;;;;;3.83;1.20;;;9.60;99.90;;;;;;5034866;28;20421;-72
2021/11/08 09:54:53;;;;;;;1.30;1.20;;;9.60;99.90;;;;;;5026333;28;20451;-72
2021/11/08 09:57:23;;;;;;;2.27;1.30;;;9.60;99.90;;;;;;5014445;28;20450;-72
2021/11/08 09:59:49;;;;;;;1.10;1.00;;;9.70;99.90;;;;;;5013703;28;20427;-71
2021/11/08 10:02:14;;;;;;;1.30;1.20;;;9.60;99.90;;;;;;5012993;28;20874;-71
2021/11/08 10:04:42;;;;;;;2.40;0.90;;;9.70;99.90;;;;;;5013898;28;20170;-71
2021/11/08 10:07:08;;;;;;;1.10;1.00;;;9.60;99.90;;;;;;5012426;28;20197;-71
2021/11/08 10:09:33;;;;;;;2.70;1.13;;;9.60;99.90;;;;;;5014372;28;20431;-72
2021/11/08 10:11:59;;;;;;;2.73;1.43;;;9.60;99.90;;;;;;5014997;28;20179;-72
2021/11/08 10:14:25;;;;;;;2.20;1.10;;;9.80;99.90;;;;;;5014118;28;20172;-71
2021/11/08 10:16:51;;;;;;;1.00;0.90;;;9.60;99.90;;;;;;5013373;28;20171;-72
2021/11/08 10:19:26;;;;;;;1.23;0.93;;;9.70;99.90;;;;;;5014492;28;20513;-72
2021/11/08 10:21:54;;;;;;;5.90;1.20;;;9.60;99.90;;;;;;5014912;28;20450;-72
2021/11/08 10:24:27;;;;;;;1.10;1.10;;;9.70;99.90;;;;;;5013444;28;20775;-72
2021/11/08 10:26:54;;;;;;;2.97;1.10;;;9.70;99.90;;;;;;5016463;28;20399;-71
2021/11/08 10:29:22;;;;;;;1.60;1.30;;;9.80;99.90;;;;;;5021423;28;20941;-72
2021/11/08 10:31:56;;;;;;;0.90;0.80;;;9.80;99.90;;;;;;5036094;28;20417;-71
2021/11/08 10:34:23;;;;;;;3.53;1.10;;;9.80;99.90;;;;;;5035970;28;20425;-71
2021/11/08 10:37:04;;;;;;;1.77;1.23;;;10.00;99.90;;;;;;5035516;28;20440;-71
2021/11/08 10:39:37;;;;;;;2.30;1.50;;;10.00;99.90;;;;;;5035251;28;20431;-72
2021/11/08 10:42:04;;;;;;;3.40;1.00;;;9.90;99.90;;;;;;5035447;28;20506;-71
2021/11/08 10:44:31;;;;;;;1.17;1.07;;;10.00;99.90;;;;;;5034435;28;20410;-71
2021/11/08 10:46:59;;;;;;;1.27;1.17;;;10.10;99.90;;;;;;5035212;28;20463;-70
2021/11/08 10:49:28;;;;;;;1.27;0.90;;;10.10;99.90;;;;;;5035482;28;20426;-70
2021/11/08 10:51:56;;;;;;;1.83;1.07;;;10.20;99.90;;;;;;5035425;28;20421;-71
2021/11/08 10:54:26;;;;;;;1.23;1.13;;;10.40;99.90;;;;;;5034503;28;20422;-70
2021/11/08 10:57:01;;;;;;;4.47;1.37;;;10.60;99.90;;;;;;5034955;28;20913;-71
2021/11/08 10:59:30;;;;;;;1.70;1.10;;;10.50;99.90;;;;;;5034925;28;20489;-71
2021/11/08 11:01:58;;;;;;;2.20;0.90;;;10.60;99.90;;;;;;5034695;28;20460;-70
2021/11/08 11:04:43;;;;;;;2.30;1.40;;;10.90;99.90;;;;;;5033282;28;20415;-70
2021/11/08 11:07:18;;;;;;;1.13;1.03;;;10.60;99.90;;;;;;5034798;28;20414;-71
2021/11/08 11:09:44;;;;;;;3.60;3.00;;;10.70;99.90;;;;;;5034665;28;20483;-71
2021/11/08 11:12:15;;;;;;;2.63;1.23;;;10.70;99.90;;;;;;5034331;28;20422;-72
2021/11/08 11:14:54;;;;;;;3.97;1.27;;;10.80;99.90;;;;;;5020313;28;20407;-72
2021/11/08 11:17:37;;;;;;;1.83;1.33;;;10.60;99.90;;;;;;5015776;28;20427;-71
2021/11/08 11:20:06;;;;;;;1.33;1.00;;;10.50;99.90;;;;;;5015047;28;20419;-72
2021/11/08 11:22:35;;;;;;;2.07;1.03;;;10.50;99.90;;;;;;5014689;28;20435;-70
2021/11/08 11:25:06;;;;;;;6.00;1.10;;;10.70;99.90;;;;;;5015741;28;20483;-72
2021/11/08 11:27:38;;;;;;;1.40;1.30;;;10.70;99.90;;;;;;5015569;28;20920;-71
2021/11/08 11:30:23;;;;;;;0.80;0.80;;;11.00;99.90;;;;;;5022429;28;20836;-72
2021/11/08 11:33:04;;;;;;;3.57;0.87;;;11.00;99.90;;;;;;5034254;28;20398;-72
2021/11/08 11:35:32;;;;;;;1.27;0.80;;;11.10;99.90;;;;;;5034444;28;20476;-72
2021/11/08 11:38:02;;;;;;;3.93;1.10;;;11.00;99.90;;;;;;5033056;28;20411;-72
2021/11/08 11:40:30;;;;;;;1.00;0.90;;;11.20;99.90;;;;;;5034669;28;21048;-73
2021/11/08 11:43:03;;;;;;;1.63;0.87;;;11.40;99.90;;;;;;5035448;28;20430;-72
2021/11/08 11:45:41;;;;;;;3.63;0.97;;;11.20;99.90;;;;;;5034993;28;20488;-73
2021/11/08 11:48:07;;;;;;;3.43;1.63;;;11.00;99.90;;;;;;5034062;28;20468;-71
2021/11/08 11:50:35;;;;;;;2.20;0.90;;;10.90;99.90;;;;;;5032043;28;20779;-71
2021/11/08 11:53:02;;;;;;;2.20;1.30;;;11.10;99.90;;;;;;5033717;28;20812;-71
2021/11/08 11:55:30;;;;;;;1.97;1.07;;;11.30;99.90;;;;;;5032047;28;20415;-70
2021/11/08 11:57:56;;;;;;;4.40;0.87;;;11.30;99.90;;;;;;5033548;28;20426;-71
2021/11/08 12:00:27;;;;;;;2.93;2.03;;;11.20;99.90;;;;;;5032869;28;20445;-72
2021/11/08 12:02:54;;;;;;;1.37;0.97;;;11.10;99.90;;;;;;5033853;28;20928;-69
2021/11/08 12:05:19;;;;;;;3.43;1.07;;;11.20;99.90;;;;;;5033092;28;20793;-73
2021/11/08 12:08:08;;;;;;;2.17;1.00;;;11.00;99.90;;;;;;5033216;28;20513;-70
2021/11/08 12:10:45;;;;;;;4.97;2.70;;;11.10;99.90;;;;;;5031569;28;20402;-72
2021/11/08 12:13:18;;;;;;;3.77;1.33;;;11.30;99.90;;;;;;5032261;28;20414;-74
2021/11/08 12:15:45;;;;;;;2.03;1.10;;;11.40;99.90;;;;;;5014006;28;20736;-71
2021/11/08 12:18:15;;;;;;;4.83;1.20;;;11.20;99.90;;;;;;5013442;28;20522;-72
2021/11/08 12:20:49;;;;;;;2.53;1.40;;;11.40;99.90;;;;;;4996814;28;20461;-71
2021/11/08 12:23:29;;;;;;;3.60;1.50;;;11.00;99.90;;;;;;5014577;28;20407;-72
2021/11/08 12:25:56;;;;;;;1.67;1.40;;;11.40;99.90;;;;;;5035321;28;20402;-71
2021/11/08 12:28:25;;;;;;;1.87;1.10;;;11.10;99.90;;;;;;5035053;28;20427;-69
2021/11/08 12:30:55;;;;;;;4.10;1.10;;;11.30;99.90;;;;;;5033355;28;20473;-71
2021/11/08 12:33:27;;;;;;;1.10;0.97;;;11.10;99.90;;;;;;5034207;28;20410;-71
2021/11/08 12:35:55;;;;;;;1.57;0.90;;;11.20;99.90;;;;;;5026066;28;20473;-71
2021/11/08 12:38:29;;;;;;;4.13;1.47;;;11.00;99.90;;;;;;5023282;28;20434;-70
2021/11/08 12:41:20;;;;;;;1.30;1.20;;;11.20;99.90;;;;;;5034526;28;20448;-71
2021/11/08 12:43:56;;;;;;;1.27;0.77;;;11.20;99.90;;;;;;5030678;28;20407;-71
2021/11/08 12:46:26;;;;;;;3.90;1.33;;;11.00;99.90;;;;;;5032230;28;20410;-73
2021/11/08 12:49:03;;;;;;;2.90;1.20;;;10.90;99.90;;;;;;5016432;28;20498;-72
2021/11/08 12:51:30;;;;;;;1.93;0.97;;;11.00;99.90;;;;;;5028110;28;20429;-72
2021/11/08 12:54:07;;;;;;;5.00;3.50;;;11.30;99.90;;;;;;5016877;28;20430;-72
2021/11/08 12:56:40;;;;;;;6.10;1.20;;;11.20;99.90;;;;;;5016001;28;20414;-71
2021/11/08 12:59:23;;;;;;;1.10;0.77;;;11.20;99.90;;;;;;5015259;28;20427;-71
2021/11/08 13:01:59;;;;;;;0.93;0.90;;;11.00;99.90;;;;;;5013432;28;21034;-69
2021/11/08 13:04:41;;;;;;;0.80;0.70;;;10.90;99.90;;;;;;5026505;28;20431;-72
2021/11/08 13:07:09;;;;;;;0.73;0.73;;;10.80;99.90;;;;;;5033418;28;20413;-71
2021/11/08 13:09:49;;;;;;;3.47;1.00;;;10.70;99.90;;;;;;5029200;28;20480;-71
2021/11/08 13:12:18;;;;;;;5.33;1.27;;;10.90;99.90;;;;;;5029745;28;20919;-71
2021/11/08 13:14:45;;;;;;;2.23;1.20;;;11.10;99.90;;;;;;5027927;28;20930;-71
2021/11/08 13:17:15;;;;;;;4.70;1.20;;;11.00;99.90;;;;;;5020179;28;20469;-71
2021/11/08 13:19:54;;;;;;;1.40;1.17;;;10.90;99.90;;;;;;5016331;28;20450;-69
2021/11/08 13:22:21;;;;;;;0.83;0.70;;;11.00;99.90;;;;;;5025326;28;20536;-69
2021/11/08 13:25:15;;;;;;;1.13;1.03;;;10.90;99.90;;;;;;5032999;28;20418;-71
2021/11/08 13:28:15;;;;;;;1.27;1.10;;;10.80;99.90;;;;;;5028192;28;20525;-70
2021/11/08 13:30:52;;;;;;;1.53;0.80;;;10.90;99.90;;;;;;5029394;28;20445;-72
2021/11/08 13:33:29;;;;;;;1.20;1.10;;;10.90;99.90;;;;;;5034340;28;20476;-72
2021/11/08 13:35:56;;;;;;;0.60;0.60;;;10.90;99.90;;;;;;5034866;28;20886;-71
2021/11/08 13:38:32;;;;;;;7.93;0.97;;;10.90;99.90;;;;;;5028798;28;20497;-71
2021/11/08 13:41:02;;;;;;;0.77;0.70;;;10.90;99.90;;;;;;5015948;28;20550;-70
2021/11/08 13:43:35;;;;;;;1.97;1.07;;;10.90;99.90;;;;;;5030201;28;20406;-70
2021/11/08 13:46:11;;;;;;;1.87;0.90;;;10.90;99.90;;;;;;5027322;28;20410;-68
2021/11/08 13:48:43;;;;;;;1.43;0.80;;;10.90;99.90;;;;;;5026669;28;20430;-69
2021/11/08 13:51:26;;;;;;;2.53;1.10;;;11.00;99.90;;;;;;5030775;28;20414;-68
2021/11/08 13:53:58;;;;;;;2.00;0.80;;;10.80;99.90;;;;;;5030725;28;20402;-70
2021/11/08 13:56:31;;;;;;;0.73;0.73;;;10.80;99.90;;;;;;5030110;28;20418;-69
2021/11/08 13:58:58;;;;;;;1.77;1.23;;;10.90;99.90;;;;;;5019402;28;20437;-69
2021/11/08 14:01:29;;;;;;;5.13;1.20;;;10.80;99.90;;;;;;5014151;28;20489;-68
2021/11/08 14:03:55;;;;;;;1.37;1.20;;;10.90;99.90;;;;;;5014948;28;20540;-69
2021/11/08 14:06:33;;;;;;;1.43;1.00;;;11.00;99.90;;;;;;5015140;28;20490;-69
2021/11/08 14:09:00;;;;;;;1.77;1.20;;;11.00;99.90;;;;;;5015109;28;20184;-70
2021/11/08 14:11:33;;;;;;;6.43;1.27;;;11.10;99.90;;;;;;5027468;28;20788;-68
2021/11/08 14:14:05;;;;;;;1.10;1.00;;;10.80;99.90;;;;;;5034861;28;20726;-69
2021/11/08 14:16:30;;;;;;;1.17;0.90;;;10.90;99.90;;;;;;5019414;28;20434;-68
2021/11/08 14:18:56;;;;;;;2.57;0.80;;;10.90;99.90;;;;;;5016449;28;20573;-68
2021/11/08 14:21:24;;;;;;;4.30;1.27;;;10.80;99.90;;;;;;5018925;28;20207;-68
2021/11/08 14:24:00;;;;;;;1.67;1.07;;;10.80;99.90;;;;;;5034278;28;20172;-69
2021/11/08 14:26:26;;;;;;;1.37;1.10;;;10.70;99.90;;;;;;5022545;28;20418;-69
2021/11/08 14:28:52;;;;;;;1.47;0.87;;;10.80;99.90;;;;;;5014823;28;20427;-68
2021/11/08 14:31:22;;;;;;;1.97;1.10;;;10.70;99.90;;;;;;5014909;28;20453;-69
2021/11/08 14:33:50;;;;;;;2.40;1.63;;;10.70;99.90;;;;;;5019723;28;20406;-70
2021/11/08 14:36:18;;;;;;;3.37;1.10;;;10.70;99.90;;;;;;5027681;28;20414;-70